Home  > Rebate Center > Cooking > Range Hoods >  Approved for Outdoor Use: No

Rebate Center: Not Approved for Outdoor Use Range Hoods

Sort:

  • Mail In Rebates
  • Instant Savings
  • Free Delivery
  • Product Reviews
  • Top Ratings
  • Quick Ship

Displaying 81 - 100 of 254 Products 20 40 50 products per page  

1

2

3

4

5

6

7

8

BlueStar Manhattan Series BSMNHTTNIBC

Brushed Copper Island Hood with 3-Speed Blower Options, Hidden Controls, Baffle Filters, Halogen Lamps and Top Discharge

BSMANHI24BC 24" Width 01/01/2016 - 12/31/2016 Save $500 Download
BSMANHI30BC 30" Width 01/01/2016 - 12/31/2016 Save $500 Download
BSMANHI36BC 36" Width 01/01/2016 - 12/31/2016 Save $500 Download
BSMANHI42BC 42" Width 01/01/2016 - 12/31/2016 Save $500 Download
BSMANHI48BC 48" Width 01/01/2016 - 12/31/2016 Save $500 Download
BSMANHI54BC 54" Width 01/01/2016 - 12/31/2016 Save $500 Download
BSMANHI60BC 60" Width 01/01/2016 - 12/31/2016 Save $500 Download
BSMANHI66BC 66" Width 01/01/2016 - 12/31/2016 Save $500 Download
Bosch 800 Series HIB82651UC

42 Inch Island Chimney Range Hood with 600 CFM Internal Blower, 4-Speed Touch Controls, Heat Sensor, Built-in Timer, Stainless Steel Filters and Non-Duct Option

HIB82651UC   09/01/2016 - 12/31/2016 Save 10% + $550 on 4+ Piece Kitchen Package Download
BlueStar Manhattan Series BSMNHTTNBB

Brushed Brass Wall Mount Hood with 3-Speed Blower Options, Hidden Controls, Baffle Filters, Halogen Lamps and Top Discharge

BSMANH24BB 24" Width 01/01/2016 - 12/31/2016 Save $500 Download
BSMANH30BB 30" Width 01/01/2016 - 12/31/2016 Save $500 Download
BSMANH36BB 36" Width 01/01/2016 - 12/31/2016 Save $500 Download
BSMANH42BB 42" Width 01/01/2016 - 12/31/2016 Save $500 Download
BSMANH48BB 48" Width 01/01/2016 - 12/31/2016 Save $500 Download
BSMANH54BB 54" Width 01/01/2016 - 12/31/2016 Save $500 Download
BSMANH60BB 60" Width 01/01/2016 - 12/31/2016 Save $500 Download
BSMANH66BB 66" Width 01/01/2016 - 12/31/2016 Save $500 Download
BlueStar Hampton Series BSHAMPTONBC

Brushed Copper Wall Mount Hood with 3-Speed Blower Options, Hidden Controls, Baffle Filters, Halogen Lamps and Reversible Top/Rear Exhaust

BSHAMP30BC 30" Width 01/01/2016 - 12/31/2016 Save $500 Download
BSHAMP36BC 36" Width 01/01/2016 - 12/31/2016 Save $500 Download
BSHAMP42BC 42" Width 01/01/2016 - 12/31/2016 Save $500 Download
BSHAMP48BC 48" Width 01/01/2016 - 12/31/2016 Save $500 Download
BSHAMP54BC 54" Width 01/01/2016 - 12/31/2016 Save $500 Download
BSHAMP60BC 60" Width 01/01/2016 - 12/31/2016 Save $500 Download
BSHAMP66BC 66" Width 01/01/2016 - 12/31/2016 Save $500 Download
BlueStar Poplar Series BSPOPLARSS

Wall Mount Hood with 3-Speed Blower Options, 750 Color Options, Hidden Controls, Dishwasher Safe Baffle Filters, Halogen Lamps and Reversible Top/Rear Exhaust

BSPOPL30SS 30" Width 01/01/2016 - 12/31/2016 Save $500 Download
BSPOPL36SS 36" Width 01/01/2016 - 12/31/2016 Save $500 Download
BSPOPL42SS 42" Width 01/01/2016 - 12/31/2016 Save $500 Download
BSPOPL48SS 48" Width 01/01/2016 - 12/31/2016 Save $500 Download
BSPOPL54SS 54" Width 01/01/2016 - 12/31/2016 Save $500 Download
BSPOPL60SS 60" Width 01/01/2016 - 12/31/2016 Save $500 Download
BSPOPL66SS 66" Width 01/01/2016 - 12/31/2016 Save $500 Download
Thermador Masterpiece Series HMCB

Wall Mount Chimney Range Hood with 600 CFM Internal Blower, Halogen Lights, 4-Speed Touch Controls and 7 Segment Electronic Display

HMCB36FS 36-Inch 01/01/2016 - 12/31/2016 Save Up To $7,646 Instantly Download
HMCB42FS 42-Inch 01/01/2016 - 12/31/2016 Save Up To $7,646 Instantly Download
BlueStar Laredo Series BSLAREDOBB

Brushed Brass Wall Mount Hood with 3-Speed Blower Options, Hidden Controls, Baffle Filters, Halogen Lamps and Reversible Top/Rear Exhaust

BSLARE30BB 30" Width 01/01/2016 - 12/31/2016 Save $500 Download
BSLARE36BB 36" Width 01/01/2016 - 12/31/2016 Save $500 Download
BSLARE42BB 42" Width 01/01/2016 - 12/31/2016 Save $500 Download
BSLARE48BB 48" Width 01/01/2016 - 12/31/2016 Save $500 Download
BSLARE54BB 54" Width 01/01/2016 - 12/31/2016 Save $500 Download
BSLARE60BB 60" Width 01/01/2016 - 12/31/2016 Save $500 Download
BSLARE66BB 66" Width 01/01/2016 - 12/31/2016 Save $500 Download
Viking Professional 5 Series VBCV53638

36 Inch Wall Mount Custom Hood Insert with Optional Blowers, Variable Fan Speeds, Heat Sensor, Heat Lamp, LED Lighting, LED Knobs and Commercial-Type Filters

VBCV53638   09/01/2016 - 12/31/2016 Instant Savings of up to $1,579 Download
Bosch 300 Series HCP36E51UC

36 Inch Canopy Chimney Range Hood with 300 CFM Centrifugal Integrated Blower, Three Speed Touch Controls, LCD Display, Recirculation Mode Conversion and Dishwasher Safe Mesh Filter

HCP36E51UC   09/01/2016 - 12/31/2016 Save 10% + $550 on 4+ Piece Kitchen Package Download
Prizer Hoods Manhattan Series MANH

Wall Mount Chimney Range Hood with Optional Blowers, 3-Speed Fan Control, High-Heat Sensor, Halogen Lights, Handcrafted 16 Gauge Material and Baffle Filters

MANH24SS 24" Width, Brushed Stainless Steel 01/01/2016 - 12/31/2016 Save $500 Download
MANH30SS 30" Width, Brushed Stainless Steel 01/01/2016 - 12/31/2016 Save $500 Download
MANH36SS 36" Width, Brushed Stainless Steel 01/01/2016 - 12/31/2016 Save $500 Download
MANH42SS 42" Width, Brushed Stainless Steel 01/01/2016 - 12/31/2016 Save $500 Download
MANH48SS 48" Width, Brushed Stainless Steel 01/01/2016 - 12/31/2016 Save $500 Download
MANH54SS 54" Width, Brushed Stainless Steel 01/01/2016 - 12/31/2016 Save $500 Download
MANH60SS 60" Width, Brushed Stainless Steel 01/01/2016 - 12/31/2016 Save $500 Download
MANH66SS 66" Width, Brushed Stainless Steel 01/01/2016 - 12/31/2016 Save $500 Download
BlueStar Laredo Series BSLAREDOIBC

Brushed Copper Island Hood with 3-Speed Blower Options, Hidden Controls, Baffle Filters and Halogen Lamps

BSLAREI30BC 30" Width 01/01/2016 - 12/31/2016 Save $500 Download
BSLAREI36BC 36" Width 01/01/2016 - 12/31/2016 Save $500 Download
BSLAREI42BC 42" Width 01/01/2016 - 12/31/2016 Save $500 Download
BSLAREI48BC 48" Width 01/01/2016 - 12/31/2016 Save $500 Download
BSLAREI54BC 54" Width 01/01/2016 - 12/31/2016 Save $500 Download
BSLAREI60BC 60" Width 01/01/2016 - 12/31/2016 Save $500 Download
BSLAREI66BC 66" Width 01/01/2016 - 12/31/2016 Save $500 Download
BlueStar Manhattan Series BSMNHTTNISS

Island Hood with 3-Speed Blower Options, 750 Color Options, Hidden Controls, Dishwasher Safe Baffle Filters, Halogen Lamps and Top Discharge

BSMANHI24SS 24" Width 01/01/2016 - 12/31/2016 Save $500 Download
BSMANHI30SS 30" Width 01/01/2016 - 12/31/2016 Save $500 Download
BSMANHI36SS 36" Width 01/01/2016 - 12/31/2016 Save $500 Download
BSMANHI42SS 42" Width 01/01/2016 - 12/31/2016 Save $500 Download
BSMANHI48SS 48" Width 01/01/2016 - 12/31/2016 Save $500 Download
BSMANHI54SS 54" Width 01/01/2016 - 12/31/2016 Save $500 Download
BSMANHI60SS 60" Width 01/01/2016 - 12/31/2016 Save $500 Download
BSMANHI66SS 66" Width 01/01/2016 - 12/31/2016 Save $500 Download
BlueStar Manhattan Series BSMNHTTNBC

Brushed Copper Wall Mount Hood with 3-Speed Blower Options, Hidden Controls, Baffle Filters, Halogen Lamps and Top Discharge

BSMANH24BC 24" Width 01/01/2016 - 12/31/2016 Save $500 Download
BSMANH30BC 30" Width 01/01/2016 - 12/31/2016 Save $500 Download
BSMANH36BC 36" Width 01/01/2016 - 12/31/2016 Save $500 Download
BSMANH42BC 42" Width 01/01/2016 - 12/31/2016 Save $500 Download
BSMANH48BC 48" Width 01/01/2016 - 12/31/2016 Save $500 Download
BSMANH54BC 54" Width 01/01/2016 - 12/31/2016 Save $500 Download
BSMANH60BC 60" Width 01/01/2016 - 12/31/2016 Save $500 Download
BSMANH66BC 66" Width 01/01/2016 - 12/31/2016 Save $500 Download
Viking Professional 5 Series VCWH56048

60 Inch Wall Mount Chimney Range Hood with Optional Blowers, Variable Fan Speeds, Heat Sensor, Heat Lamps, LED Lighting, LED Knobs and Commercial-Type Filters

VCWH56048SS Stainless Steel 09/01/2016 - 12/31/2016 Instant Savings of up to $1,579 Download
VCWH56048AR Apple Red 09/01/2016 - 12/31/2016 Instant Savings of up to $1,579 Download
VCWH56048BK Black 09/01/2016 - 12/31/2016 Instant Savings of up to $1,579 Download
VCWH56048BU Burgundy 09/01/2016 - 12/31/2016 Instant Savings of up to $1,579 Download
VCWH56048CB Cobalt Blue 09/01/2016 - 12/31/2016 Instant Savings of up to $1,579 Download
VCWH56048GG Graphite Gray 09/01/2016 - 12/31/2016 Instant Savings of up to $1,579 Download
VCWH56048WH White 09/01/2016 - 12/31/2016 Instant Savings of up to $1,579 Download
BlueStar Hampton Series BSHAMPTONSS

Wall Mount Hood with 3-Speed Blower Options, 750 Color Options, Hidden Controls, Dishwasher Safe Baffle Filters, Halogen Lamps and Reversible Top/Rear Exhaust

BSHAMP30SS 30" Width 01/01/2016 - 12/31/2016 Save $500 Download
BSHAMP36SS 36" Width 01/01/2016 - 12/31/2016 Save $500 Download
BSHAMP42SS 42" Width 01/01/2016 - 12/31/2016 Save $500 Download
BSHAMP48SS 48" Width 01/01/2016 - 12/31/2016 Save $500 Download
BSHAMP54SS 54" Width 01/01/2016 - 12/31/2016 Save $500 Download
BSHAMP60SS 60" Width 01/01/2016 - 12/31/2016 Save $500 Download
BSHAMP66SS 66" Width 01/01/2016 - 12/31/2016 Save $500 Download
BlueStar Poplar Series BSPOPLARBB

Brushed Brass Wall Mount Hood with 3-Speed Blower Options, Hidden Controls, Baffle Filters, Halogen Lamps and Reversible Top/Rear Exhaust

BSPOPL30BB 30" Width 01/01/2016 - 12/31/2016 Save $500 Download
BSPOPL36BB 36" Width 01/01/2016 - 12/31/2016 Save $500 Download
BSPOPL42BB 42" Width 01/01/2016 - 12/31/2016 Save $500 Download
BSPOPL48BB 48" Width 01/01/2016 - 12/31/2016 Save $500 Download
BSPOPL54BB 54" Width 01/01/2016 - 12/31/2016 Save $500 Download
BSPOPL60BB 60" Width 01/01/2016 - 12/31/2016 Save $500 Download
BSPOPL66BB 66" Width 01/01/2016 - 12/31/2016 Save $500 Download
Viking Professional Series VWH54248

42 Inch Pro-Style Wall Mount Range Hood with Optional Blowers, Heat Sensor, Heat Lamps, LED Lights, Commercial-Type Baffle Filters, Backlit Knobs and 18 Inch Height

VWH54248SS Stainless Steel 09/01/2016 - 12/31/2016 Instant Savings of up to $1,579 Download
VWH54248AR Apple Red 09/01/2016 - 12/31/2016 Instant Savings of up to $1,579 Download
VWH54248BK Black 09/01/2016 - 12/31/2016 Instant Savings of up to $1,579 Download
VWH54248BU Burgundy 09/01/2016 - 12/31/2016 Instant Savings of up to $1,579 Download
VWH54248CB Cobalt Blue 09/01/2016 - 12/31/2016 Instant Savings of up to $1,579 Download
VWH54248GG Graphite Gray 09/01/2016 - 12/31/2016 Instant Savings of up to $1,579 Download
VWH54248WH White 09/01/2016 - 12/31/2016 Instant Savings of up to $1,579 Download
BlueStar Santa Fe Series BSSANTAFESS

Wall Mount Hood with 3-Speed Blower Options, 750 Color Options, Hidden Controls, Dishwasher Safe Baffle Filters, Halogen Lamps and Reversible Top/Rear Exhaust

BSSNFE302418SS 30" Width 01/01/2016 - 12/31/2016 Save $500 Download
BSSNFE362418SS 36" Width 01/01/2016 - 12/31/2016 Save $500 Download
BSSNFE422418SS 42" Width 01/01/2016 - 12/31/2016 Save $500 Download
BSSNFE482418SS 48" Width 01/01/2016 - 12/31/2016 Save $500 Download
BSSNFE542418SS 54" Width 01/01/2016 - 12/31/2016 Save $500 Download
BSSNFE602418SS 60" Width 01/01/2016 - 12/31/2016 Save $500 Download
BSSNFE662418SS 66" Width 01/01/2016 - 12/31/2016 Save $500 Download
BlueStar Bonanza Series BSBONANZABC

Brushed Copper Wall Mount Hood with 3-Speed Blower Options, Hidden Controls, Baffle Filters, Halogen Lamps and Reversible Top/Rear Exhaust

BSBONZ30BC 30" Width 01/01/2016 - 12/31/2016 Save $500 Download
BSBONZ36BC 36" Width 01/01/2016 - 12/31/2016 Save $500 Download
BSBONZ42BC 42" Width 01/01/2016 - 12/31/2016 Save $500 Download
BSBONZ48BC 48" Width 01/01/2016 - 12/31/2016 Save $500 Download
BSBONZ54BC 54" Width 01/01/2016 - 12/31/2016 Save $500 Download
BSBONZ60BC 60" Width 01/01/2016 - 12/31/2016 Save $500 Download
BSBONZ66BC 66" Width 01/01/2016 - 12/31/2016 Save $500 Download
Smeg KT90U

36 Inch Wall Mount Chimney Range Hood With 600 CFM Internal Blower, 4 Fan Speeds, 2 Halogen Lights, Dishwasher Safe Stainless Steel Grease Filters and Convertible to Recirculating

KT90BU Black 07/01/2016 - 12/31/2016 Save up to $1,699 Download
KT90PU Cream 07/01/2016 - 12/31/2016 Save up to $1,699 Download
KT90XU Stainless Steel 07/01/2016 - 12/31/2016 Save up to $1,699 Download

Sort:

Displaying 81 - 100 of 254 Products 20 40 50 products per page  

1

2

3

4

5

6

7

8

Expand Your Results

Remove Category:

Remove Approved for Outdoor Use:

Are you a builder
Quick LookQuick Look